Startpagina
METAR-TAF:

METAR-TAF

Vliegvelden :

Aérodrome de Pontoise-Cormeilles-en-Vexin

Pontoise, Frankrijk

breedte: 49-05-48N, lengte: 002-02-27E, hoogte: 99 m

Actueel weer

Dit bericht is 26 minuten geleden gemaakt, om 12:30 UTC
Wind 13 kt uit het westen
Temperatuur 19°C
Vochtigheid 56%
Druk 1007 hPa
Zicht 10 km of meer
Weinig wolken op 4300 ft

METAR: LFPT 161230Z AUTO 27013KT 9999 FEW043 19/10 Q1007

Tijdstip: 14:56 (12:56 UTC)


TAF: ontbreekt

Waarnemingen en weersverwachtingen van meer dan 4000 vliegvelden (METAR en TAF).

De beschikbare stations zijn de gele en rode punten op de kaart.

Ga met uw muis naar het station om de naam te zien.

Klik dan om waarnemingen en weersverwachtingen te zien.

kaart wijzigen: klik op de groene knoppen met een zwart kruis om in te zoomen, op de groene knop met een streepje om uit te zoomen of op de groene pijlen voor aangrenzende kaarten.


METAR-TAF: